sensor_id;sensor_type;location;lat;lon;timestamp;P1;durP1;ratioP1;P2;durP2;ratioP2
66721;SDS011;53633;49.932;10.884;2023-04-24T00:01:47;4.10;;;1.17;;
66721;SDS011;53633;49.932;10.884;2023-04-24T00:04:14;4.18;;;1.17;;
66721;SDS011;53633;49.932;10.884;2023-04-24T00:06:41;4.05;;;0.73;;
66721;SDS011;53633;49.932;10.884;2023-04-24T00:09:08;2.60;;;0.80;;
66721;SDS011;53633;49.932;10.884;2023-04-24T00:11:34;3.42;;;0.88;;
66721;SDS011;53633;49.932;10.884;2023-04-24T00:14:02;3.97;;;1.05;;
66721;SDS011;53633;49.932;10.884;2023-04-24T00:16:29;3.63;;;1.00;;
66721;SDS011;53633;49.932;10.884;2023-04-24T00:18:56;3.47;;;1.00;;
66721;SDS011;53633;49.932;10.884;2023-04-24T00:21:23;3.37;;;1.00;;
66721;SDS011;53633;49.932;10.884;2023-04-24T00:23:49;3.92;;;1.13;;
66721;SDS011;53633;49.932;10.884;2023-04-24T00:26:16;3.20;;;0.90;;
66721;SDS011;53633;49.932;10.884;2023-04-24T00:28:42;2.80;;;0.88;;
66721;SDS011;53633;49.932;10.884;2023-04-24T00:31:11;4.03;;;0.88;;
66721;SDS011;53633;49.932;10.884;2023-04-24T00:33:38;3.17;;;1.00;;
66721;SDS011;53633;49.932;10.884;2023-04-24T00:36:05;4.25;;;1.00;;
66721;SDS011;53633;49.932;10.884;2023-04-24T00:38:31;3.30;;;1.25;;
66721;SDS011;53633;49.932;10.884;2023-04-24T00:40:58;5.68;;;1.60;;
66721;SDS011;53633;49.932;10.884;2023-04-24T00:43:25;3.80;;;1.15;;
66721;SDS011;53633;49.932;10.884;2023-04-24T00:45:52;4.43;;;1.13;;
66721;SDS011;53633;49.932;10.884;2023-04-24T00:48:20;3.42;;;1.17;;
66721;SDS011;53633;49.932;10.884;2023-04-24T00:50:47;3.30;;;1.10;;
66721;SDS011;53633;49.932;10.884;2023-04-24T00:53:13;4.70;;;1.13;;
66721;SDS011;53633;49.932;10.884;2023-04-24T00:55:40;4.28;;;0.95;;
66721;SDS011;53633;49.932;10.884;2023-04-24T00:58:07;4.33;;;1.37;;
66721;SDS011;53633;49.932;10.884;2023-04-24T01:00:34;5.18;;;1.40;;
66721;SDS011;53633;49.932;10.884;2023-04-24T01:03:01;3.20;;;1.00;;
66721;SDS011;53633;49.932;10.884;2023-04-24T01:05:32;5.45;;;1.20;;
66721;SDS011;53633;49.932;10.884;2023-04-24T01:07:59;5.13;;;1.65;;
66721;SDS011;53633;49.932;10.884;2023-04-24T01:10:28;4.27;;;1.27;;
66721;SDS011;53633;49.932;10.884;2023-04-24T01:12:57;5.13;;;1.52;;
66721;SDS011;53633;49.932;10.884;2023-04-24T01:15:24;5.65;;;1.45;;
66721;SDS011;53633;49.932;10.884;2023-04-24T01:17:51;5.05;;;1.40;;
66721;SDS011;53633;49.932;10.884;2023-04-24T01:20:17;5.38;;;1.42;;
66721;SDS011;53633;49.932;10.884;2023-04-24T01:22:46;5.45;;;1.58;;
66721;SDS011;53633;49.932;10.884;2023-04-24T01:25:12;5.53;;;1.70;;
66721;SDS011;53633;49.932;10.884;2023-04-24T01:27:39;5.18;;;1.30;;
66721;SDS011;53633;49.932;10.884;2023-04-24T01:30:07;5.03;;;1.25;;
66721;SDS011;53633;49.932;10.884;2023-04-24T01:32:34;3.90;;;1.30;;
66721;SDS011;53633;49.932;10.884;2023-04-24T01:35:03;4.00;;;1.30;;
66721;SDS011;53633;49.932;10.884;2023-04-24T01:37:30;4.13;;;1.17;;
66721;SDS011;53633;49.932;10.884;2023-04-24T01:39:58;4.93;;;1.30;;
66721;SDS011;53633;49.932;10.884;2023-04-24T01:42:25;3.92;;;1.30;;
66721;SDS011;53633;49.932;10.884;2023-04-24T01:44:52;4.55;;;1.13;;
66721;SDS011;53633;49.932;10.884;2023-04-24T01:47:19;3.53;;;1.00;;
66721;SDS011;53633;49.932;10.884;2023-04-24T01:49:46;4.80;;;1.17;;
66721;SDS011;53633;49.932;10.884;2023-04-24T01:52:14;3.35;;;1.00;;
66721;SDS011;53633;49.932;10.884;2023-04-24T01:54:40;4.15;;;1.40;;
66721;SDS011;53633;49.932;10.884;2023-04-24T01:57:08;4.80;;;1.20;;
66721;SDS011;53633;49.932;10.884;2023-04-24T01:59:36;3.17;;;1.10;;
66721;SDS011;53633;49.932;10.884;2023-04-24T02:02:02;5.03;;;1.17;;
66721;SDS011;53633;49.932;10.884;2023-04-24T02:04:29;5.30;;;1.02;;
66721;SDS011;53633;49.932;10.884;2023-04-24T02:06:56;3.97;;;1.20;;
66721;SDS011;53633;49.932;10.884;2023-04-24T02:09:22;4.90;;;1.20;;
66721;SDS011;53633;49.932;10.884;2023-04-24T02:11:49;4.47;;;1.20;;
66721;SDS011;53633;49.932;10.884;2023-04-24T02:14:17;4.10;;;1.00;;
66721;SDS011;53633;49.932;10.884;2023-04-24T02:16:44;4.82;;;1.10;;
66721;SDS011;53633;49.932;10.884;2023-04-24T02:19:11;3.00;;;0.80;;
66721;SDS011;53633;49.932;10.884;2023-04-24T02:21:37;3.50;;;1.00;;
66721;SDS011;53633;49.932;10.884;2023-04-24T02:24:04;5.13;;;1.35;;
66721;SDS011;53633;49.932;10.884;2023-04-24T02:26:30;4.05;;;0.90;;
66721;SDS011;53633;49.932;10.884;2023-04-24T02:28:57;3.78;;;1.00;;
66721;SDS011;53633;49.932;10.884;2023-04-24T02:31:25;3.58;;;1.08;;
66721;SDS011;53633;49.932;10.884;2023-04-24T02:33:52;4.63;;;1.50;;
66721;SDS011;53633;49.932;10.884;2023-04-24T02:36:18;4.10;;;1.50;;
66721;SDS011;53633;49.932;10.884;2023-04-24T02:38:45;4.32;;;1.35;;
66721;SDS011;53633;49.932;10.884;2023-04-24T02:41:12;5.07;;;1.20;;
66721;SDS011;53633;49.932;10.884;2023-04-24T02:43:39;4.50;;;1.10;;
66721;SDS011;53633;49.932;10.884;2023-04-24T02:46:05;3.92;;;1.10;;
66721;SDS011;53633;49.932;10.884;2023-04-24T02:48:33;5.63;;;1.50;;
66721;SDS011;53633;49.932;10.884;2023-04-24T02:51:00;4.38;;;1.20;;
66721;SDS011;53633;49.932;10.884;2023-04-24T02:53:27;5.68;;;2.10;;
66721;SDS011;53633;49.932;10.884;2023-04-24T02:55:53;5.25;;;1.90;;
66721;SDS011;53633;49.932;10.884;2023-04-24T02:58:20;4.90;;;1.67;;
66721;SDS011;53633;49.932;10.884;2023-04-24T03:00:47;5.82;;;1.70;;
66721;SDS011;53633;49.932;10.884;2023-04-24T03:03:14;5.47;;;1.70;;
66721;SDS011;53633;49.932;10.884;2023-04-24T03:05:42;6.93;;;1.48;;
66721;SDS011;53633;49.932;10.884;2023-04-24T03:08:09;4.95;;;1.67;;
66721;SDS011;53633;49.932;10.884;2023-04-24T03:10:35;6.22;;;1.35;;
66721;SDS011;53633;49.932;10.884;2023-04-24T03:13:02;6.30;;;2.25;;
66721;SDS011;53633;49.932;10.884;2023-04-24T03:15:29;4.57;;;1.20;;
66721;SDS011;53633;49.932;10.884;2023-04-24T03:17:55;6.03;;;1.42;;
66721;SDS011;53633;49.932;10.884;2023-04-24T03:20:22;5.00;;;1.40;;
66721;SDS011;53633;49.932;10.884;2023-04-24T03:22:50;3.97;;;1.20;;
66721;SDS011;53633;49.932;10.884;2023-04-24T03:25:17;4.22;;;1.30;;
66721;SDS011;53633;49.932;10.884;2023-04-24T03:27:44;5.72;;;1.30;;
66721;SDS011;53633;49.932;10.884;2023-04-24T03:30:10;4.50;;;1.02;;
66721;SDS011;53633;49.932;10.884;2023-04-24T03:32:37;6.72;;;1.27;;
66721;SDS011;53633;49.932;10.884;2023-04-24T03:35:04;6.82;;;2.45;;
66721;SDS011;53633;49.932;10.884;2023-04-24T03:37:32;4.63;;;1.40;;
66721;SDS011;53633;49.932;10.884;2023-04-24T03:40:00;3.95;;;1.30;;
66721;SDS011;53633;49.932;10.884;2023-04-24T03:42:26;4.25;;;1.20;;
66721;SDS011;53633;49.932;10.884;2023-04-24T03:44:53;4.60;;;1.30;;
66721;SDS011;53633;49.932;10.884;2023-04-24T03:47:20;3.75;;;1.10;;
66721;SDS011;53633;49.932;10.884;2023-04-24T03:49:46;3.08;;;1.20;;
66721;SDS011;53633;49.932;10.884;2023-04-24T03:52:13;3.28;;;0.80;;
66721;SDS011;53633;49.932;10.884;2023-04-24T03:54:39;4.50;;;0.90;;
66721;SDS011;53633;49.932;10.884;2023-04-24T03:57:07;4.40;;;0.90;;
66721;SDS011;53633;49.932;10.884;2023-04-24T03:59:34;5.85;;;0.98;;
66721;SDS011;53633;49.932;10.884;2023-04-24T04:02:01;3.17;;;0.75;;
66721;SDS011;53633;49.932;10.884;2023-04-24T04:04:27;3.03;;;0.77;;
66721;SDS011;53633;49.932;10.884;2023-04-24T04:06:54;3.70;;;0.80;;
66721;SDS011;53633;49.932;10.884;2023-04-24T04:09:21;4.80;;;0.90;;
66721;SDS011;53633;49.932;10.884;2023-04-24T04:11:48;5.63;;;1.10;;
66721;SDS011;53633;49.932;10.884;2023-04-24T04:14:15;4.28;;;0.80;;
66721;SDS011;53633;49.932;10.884;2023-04-24T04:16:42;4.55;;;0.90;;
66721;SDS011;53633;49.932;10.884;2023-04-24T04:19:09;3.33;;;0.73;;
66721;SDS011;53633;49.932;10.884;2023-04-24T04:21:35;6.78;;;1.30;;
66721;SDS011;53633;49.932;10.884;2023-04-24T04:24:02;3.38;;;0.70;;
66721;SDS011;53633;49.932;10.884;2023-04-24T04:26:29;3.47;;;0.85;;
66721;SDS011;53633;49.932;10.884;2023-04-24T04:28:55;3.72;;;0.80;;
66721;SDS011;53633;49.932;10.884;2023-04-24T04:31:23;3.97;;;0.95;;
66721;SDS011;53633;49.932;10.884;2023-04-24T04:33:50;3.45;;;0.80;;
66721;SDS011;53633;49.932;10.884;2023-04-24T04:36:16;4.70;;;0.90;;
66721;SDS011;53633;49.932;10.884;2023-04-24T04:38:43;5.20;;;1.40;;
66721;SDS011;53633;49.932;10.884;2023-04-24T04:41:10;6.13;;;1.67;;
66721;SDS011;53633;49.932;10.884;2023-04-24T04:43:36;4.75;;;1.10;;
66721;SDS011;53633;49.932;10.884;2023-04-24T04:46:03;4.85;;;0.90;;
66721;SDS011;53633;49.932;10.884;2023-04-24T04:48:31;3.58;;;0.70;;
66721;SDS011;53633;49.932;10.884;2023-04-24T04:50:58;3.13;;;0.88;;
66721;SDS011;53633;49.932;10.884;2023-04-24T04:53:24;3.35;;;0.80;;
66721;SDS011;53633;49.932;10.884;2023-04-24T04:55:51;2.92;;;0.90;;
66721;SDS011;53633;49.932;10.884;2023-04-24T04:58:18;3.90;;;0.60;;
66721;SDS011;53633;49.932;10.884;2023-04-24T05:00:45;4.03;;;0.50;;
66721;SDS011;53633;49.932;10.884;2023-04-24T05:03:11;3.78;;;0.65;;
66721;SDS011;53633;49.932;10.884;2023-04-24T05:05:45;3.90;;;0.70;;
66721;SDS011;53633;49.932;10.884;2023-04-24T05:08:12;4.03;;;0.90;;
66721;SDS011;53633;49.932;10.884;2023-04-24T05:10:52;3.70;;;0.70;;
66721;SDS011;53633;49.932;10.884;2023-04-24T05:13:19;4.80;;;0.80;;
66721;SDS011;53633;49.932;10.884;2023-04-24T05:15:57;2.47;;;0.70;;
66721;SDS011;53633;49.932;10.884;2023-04-24T05:18:24;3.58;;;0.70;;
66721;SDS011;53633;49.932;10.884;2023-04-24T05:20:52;4.47;;;0.90;;
66721;SDS011;53633;49.932;10.884;2023-04-24T05:23:18;3.28;;;0.63;;
66721;SDS011;53633;49.932;10.884;2023-04-24T05:25:45;4.05;;;0.95;;
66721;SDS011;53633;49.932;10.884;2023-04-24T05:28:12;4.03;;;0.68;;
66721;SDS011;53633;49.932;10.884;2023-04-24T05:30:38;5.72;;;1.05;;
66721;SDS011;53633;49.932;10.884;2023-04-24T05:33:05;3.00;;;0.52;;
66721;SDS011;53633;49.932;10.884;2023-04-24T05:35:32;2.63;;;0.60;;
66721;SDS011;53633;49.932;10.884;2023-04-24T05:38:00;2.80;;;0.70;;
66721;SDS011;53633;49.932;10.884;2023-04-24T05:40:26;5.32;;;0.90;;
66721;SDS011;53633;49.932;10.884;2023-04-24T05:42:53;3.05;;;0.70;;
66721;SDS011;53633;49.932;10.884;2023-04-24T05:45:20;4.60;;;0.70;;
66721;SDS011;53633;49.932;10.884;2023-04-24T05:47:46;4.35;;;0.70;;
66721;SDS011;53633;49.932;10.884;2023-04-24T05:50:13;5.03;;;0.77;;
66721;SDS011;53633;49.932;10.884;2023-04-24T05:52:39;5.88;;;1.10;;
66721;SDS011;53633;49.932;10.884;2023-04-24T05:55:08;5.30;;;0.80;;
66721;SDS011;53633;49.932;10.884;2023-04-24T05:57:34;2.88;;;0.60;;
66721;SDS011;53633;49.932;10.884;2023-04-24T06:00:01;6.03;;;0.90;;
66721;SDS011;53633;49.932;10.884;2023-04-24T06:02:28;6.95;;;1.20;;
66721;SDS011;53633;49.932;10.884;2023-04-24T06:04:55;2.80;;;0.70;;
66721;SDS011;53633;49.932;10.884;2023-04-24T06:07:22;3.30;;;0.68;;
66721;SDS011;53633;49.932;10.884;2023-04-24T06:09:49;3.67;;;0.65;;
66721;SDS011;53633;49.932;10.884;2023-04-24T06:12:17;3.47;;;0.65;;
66721;SDS011;53633;49.932;10.884;2023-04-24T06:14:44;5.15;;;0.80;;
66721;SDS011;53633;49.932;10.884;2023-04-24T06:17:10;3.90;;;0.80;;
66721;SDS011;53633;49.932;10.884;2023-04-24T06:19:37;7.00;;;0.95;;
66721;SDS011;53633;49.932;10.884;2023-04-24T06:22:03;6.75;;;1.02;;
66721;SDS011;53633;49.932;10.884;2023-04-24T06:24:30;5.15;;;1.73;;
66721;SDS011;53633;49.932;10.884;2023-04-24T06:26:57;5.38;;;0.60;;
66721;SDS011;53633;49.932;10.884;2023-04-24T06:29:25;3.70;;;0.80;;
66721;SDS011;53633;49.932;10.884;2023-04-24T06:31:51;2.90;;;0.60;;
66721;SDS011;53633;49.932;10.884;2023-04-24T06:34:18;3.22;;;0.40;;
66721;SDS011;53633;49.932;10.884;2023-04-24T06:36:46;6.88;;;1.05;;
66721;SDS011;53633;49.932;10.884;2023-04-24T06:39:13;3.22;;;0.60;;
66721;SDS011;53633;49.932;10.884;2023-04-24T06:41:39;3.37;;;0.60;;
66721;SDS011;53633;49.932;10.884;2023-04-24T06:44:06;1.92;;;0.40;;
66721;SDS011;53633;49.932;10.884;2023-04-24T06:46:34;3.50;;;0.40;;
66721;SDS011;53633;49.932;10.884;2023-04-24T06:49:01;2.10;;;0.60;;
66721;SDS011;53633;49.932;10.884;2023-04-24T06:51:28;3.90;;;0.70;;
66721;SDS011;53633;49.932;10.884;2023-04-24T06:53:55;3.27;;;0.53;;
66721;SDS011;53633;49.932;10.884;2023-04-24T06:56:21;4.43;;;0.50;;
66721;SDS011;53633;49.932;10.884;2023-04-24T06:58:48;2.35;;;0.57;;
66721;SDS011;53633;49.932;10.884;2023-04-24T07:01:15;3.30;;;0.70;;
66721;SDS011;53633;49.932;10.884;2023-04-24T07:03:43;3.17;;;0.70;;
66721;SDS011;53633;49.932;10.884;2023-04-24T07:06:10;3.87;;;1.00;;
66721;SDS011;53633;49.932;10.884;2023-04-24T07:08:36;2.65;;;0.68;;
66721;SDS011;53633;49.932;10.884;2023-04-24T07:11:03;2.95;;;0.60;;
66721;SDS011;53633;49.932;10.884;2023-04-24T07:13:30;3.85;;;1.20;;
66721;SDS011;53633;49.932;10.884;2023-04-24T07:15:57;2.55;;;0.70;;
66721;SDS011;53633;49.932;10.884;2023-04-24T07:18:24;4.70;;;0.90;;
66721;SDS011;53633;49.932;10.884;2023-04-24T07:20:52;2.25;;;0.60;;
66721;SDS011;53633;49.932;10.884;2023-04-24T07:23:18;8.07;;;0.80;;
66721;SDS011;53633;49.932;10.884;2023-04-24T07:25:46;4.28;;;0.68;;
66721;SDS011;53633;49.932;10.884;2023-04-24T07:28:12;3.58;;;1.00;;
66721;SDS011;53633;49.932;10.884;2023-04-24T07:30:39;2.67;;;0.73;;
66721;SDS011;53633;49.932;10.884;2023-04-24T07:33:05;2.55;;;0.82;;
66721;SDS011;53633;49.932;10.884;2023-04-24T07:35:32;5.20;;;0.98;;
66721;SDS011;53633;49.932;10.884;2023-04-24T07:38:00;3.20;;;0.93;;
66721;SDS011;53633;49.932;10.884;2023-04-24T07:40:27;4.00;;;0.90;;
66721;SDS011;53633;49.932;10.884;2023-04-24T07:42:54;3.17;;;1.00;;
66721;SDS011;53633;49.932;10.884;2023-04-24T07:45:20;2.45;;;0.90;;
66721;SDS011;53633;49.932;10.884;2023-04-24T07:47:47;3.90;;;1.05;;
66721;SDS011;53633;49.932;10.884;2023-04-24T07:50:14;3.45;;;1.20;;
66721;SDS011;53633;49.932;10.884;2023-04-24T07:52:41;3.50;;;1.50;;
66721;SDS011;53633;49.932;10.884;2023-04-24T07:55:09;3.30;;;1.00;;
66721;SDS011;53633;49.932;10.884;2023-04-24T07:57:35;4.25;;;1.30;;
66721;SDS011;53633;49.932;10.884;2023-04-24T08:00:03;3.47;;;1.50;;
66721;SDS011;53633;49.932;10.884;2023-04-24T08:02:30;4.43;;;1.45;;
66721;SDS011;53633;49.932;10.884;2023-04-24T08:04:57;3.67;;;1.48;;
66721;SDS011;53633;49.932;10.884;2023-04-24T08:07:25;3.23;;;1.20;;
66721;SDS011;53633;49.932;10.884;2023-04-24T08:09:52;3.33;;;1.40;;
66721;SDS011;53633;49.932;10.884;2023-04-24T08:12:20;4.93;;;1.05;;
66721;SDS011;53633;49.932;10.884;2023-04-24T08:14:47;3.72;;;1.20;;
66721;SDS011;53633;49.932;10.884;2023-04-24T08:17:14;5.13;;;1.25;;
66721;SDS011;53633;49.932;10.884;2023-04-24T08:19:40;3.40;;;1.23;;
66721;SDS011;53633;49.932;10.884;2023-04-24T08:22:07;5.18;;;1.25;;
66721;SDS011;53633;49.932;10.884;2023-04-24T08:24:34;3.97;;;1.17;;
66721;SDS011;53633;49.932;10.884;2023-04-24T08:27:01;5.28;;;1.10;;
66721;SDS011;53633;49.932;10.884;2023-04-24T08:29:29;3.75;;;1.00;;
66721;SDS011;53633;49.932;10.884;2023-04-24T08:31:55;3.00;;;1.20;;
66721;SDS011;53633;49.932;10.884;2023-04-24T08:34:22;3.13;;;1.08;;
66721;SDS011;53633;49.932;10.884;2023-04-24T08:36:49;5.20;;;1.30;;
66721;SDS011;53633;49.932;10.884;2023-04-24T08:39:16;4.20;;;1.40;;
66721;SDS011;53633;49.932;10.884;2023-04-24T08:41:44;5.50;;;1.20;;
66721;SDS011;53633;49.932;10.884;2023-04-24T08:44:11;5.23;;;1.30;;
66721;SDS011;53633;49.932;10.884;2023-04-24T08:46:40;3.75;;;1.10;;
66721;SDS011;53633;49.932;10.884;2023-04-24T08:49:07;4.70;;;1.20;;
66721;SDS011;53633;49.932;10.884;2023-04-24T08:51:33;3.95;;;1.40;;
66721;SDS011;53633;49.932;10.884;2023-04-24T08:54:02;3.85;;;1.30;;
66721;SDS011;53633;49.932;10.884;2023-04-24T08:56:30;5.03;;;1.57;;
66721;SDS011;53633;49.932;10.884;2023-04-24T08:58:59;5.95;;;1.42;;
66721;SDS011;53633;49.932;10.884;2023-04-24T09:01:27;4.05;;;1.40;;
66721;SDS011;53633;49.932;10.884;2023-04-24T09:03:56;3.67;;;0.90;;
66721;SDS011;53633;49.932;10.884;2023-04-24T09:06:23;4.10;;;1.30;;
66721;SDS011;53633;49.932;10.884;2023-04-24T09:08:50;3.07;;;0.90;;
66721;SDS011;53633;49.932;10.884;2023-04-24T09:11:20;3.55;;;1.10;;
66721;SDS011;53633;49.932;10.884;2023-04-24T09:13:46;2.95;;;1.02;;
66721;SDS011;53633;49.932;10.884;2023-04-24T09:16:14;3.28;;;1.15;;
66721;SDS011;53633;49.932;10.884;2023-04-24T09:18:41;4.05;;;1.40;;
66721;SDS011;53633;49.932;10.884;2023-04-24T09:21:09;4.83;;;1.73;;
66721;SDS011;53633;49.932;10.884;2023-04-24T09:23:36;5.50;;;1.60;;
66721;SDS011;53633;49.932;10.884;2023-04-24T09:26:03;4.35;;;1.48;;
66721;SDS011;53633;49.932;10.884;2023-04-24T09:28:31;5.15;;;1.75;;
66721;SDS011;53633;49.932;10.884;2023-04-24T09:31:02;5.88;;;1.60;;
66721;SDS011;53633;49.932;10.884;2023-04-24T09:33:30;4.63;;;1.90;;
66721;SDS011;53633;49.932;10.884;2023-04-24T09:35:57;5.53;;;2.10;;
66721;SDS011;53633;49.932;10.884;2023-04-24T09:38:31;4.82;;;1.83;;
66721;SDS011;53633;49.932;10.884;2023-04-24T09:41:00;4.72;;;1.60;;
66721;SDS011;53633;49.932;10.884;2023-04-24T09:43:26;3.42;;;1.40;;
66721;SDS011;53633;49.932;10.884;2023-04-24T09:45:55;3.53;;;1.30;;
66721;SDS011;53633;49.932;10.884;2023-04-24T09:48:29;3.50;;;1.50;;
66721;SDS011;53633;49.932;10.884;2023-04-24T09:50:56;5.05;;;1.48;;
66721;SDS011;53633;49.932;10.884;2023-04-24T09:53:24;4.03;;;1.25;;
66721;SDS011;53633;49.932;10.884;2023-04-24T09:55:52;5.53;;;1.92;;
66721;SDS011;53633;49.932;10.884;2023-04-24T09:58:24;4.00;;;1.50;;
66721;SDS011;53633;49.932;10.884;2023-04-24T10:00:52;4.03;;;1.45;;
66721;SDS011;53633;49.932;10.884;2023-04-24T10:03:20;4.35;;;1.25;;
66721;SDS011;53633;49.932;10.884;2023-04-24T10:05:47;3.53;;;1.20;;
66721;SDS011;53633;49.932;10.884;2023-04-24T10:08:14;2.72;;;0.93;;
66721;SDS011;53633;49.932;10.884;2023-04-24T10:10:41;5.03;;;1.23;;
66721;SDS011;53633;49.932;10.884;2023-04-24T10:13:10;3.03;;;1.05;;
66721;SDS011;53633;49.932;10.884;2023-04-24T10:15:38;3.78;;;1.20;;
66721;SDS011;53633;49.932;10.884;2023-04-24T10:18:06;3.17;;;1.15;;
66721;SDS011;53633;49.932;10.884;2023-04-24T10:20:34;2.40;;;0.60;;
66721;SDS011;53633;49.932;10.884;2023-04-24T10:23:02;1.93;;;0.60;;
66721;SDS011;53633;49.932;10.884;2023-04-24T10:25:31;2.35;;;0.70;;
66721;SDS011;53633;49.932;10.884;2023-04-24T10:27:59;1.90;;;0.50;;
66721;SDS011;53633;49.932;10.884;2023-04-24T10:30:29;3.58;;;0.90;;
66721;SDS011;53633;49.932;10.884;2023-04-24T10:32:57;2.03;;;0.80;;
66721;SDS011;53633;49.932;10.884;2023-04-24T10:35:25;2.70;;;0.80;;
66721;SDS011;53633;49.932;10.884;2023-04-24T10:37:54;3.63;;;1.27;;
66721;SDS011;53633;49.932;10.884;2023-04-24T10:40:25;7.95;;;1.65;;
66721;SDS011;53633;49.932;10.884;2023-04-24T10:42:53;4.18;;;1.10;;
66721;SDS011;53633;49.932;10.884;2023-04-24T10:45:23;5.90;;;1.38;;
66721;SDS011;53633;49.932;10.884;2023-04-24T10:47:52;3.60;;;1.30;;
66721;SDS011;53633;49.932;10.884;2023-04-24T10:50:23;3.83;;;1.08;;
66721;SDS011;53633;49.932;10.884;2023-04-24T10:52:49;3.97;;;1.15;;
66721;SDS011;53633;49.932;10.884;2023-04-24T10:55:16;2.83;;;0.98;;
66721;SDS011;53633;49.932;10.884;2023-04-24T10:58:03;3.95;;;0.95;;
66721;SDS011;53633;49.932;10.884;2023-04-24T11:00:30;6.33;;;1.10;;
66721;SDS011;53633;49.932;10.884;2023-04-24T11:02:59;2.53;;;0.88;;
66721;SDS011;53633;49.932;10.884;2023-04-24T11:08:22;2.80;;;1.10;;
66721;SDS011;53633;49.932;10.884;2023-04-24T11:10:54;6.78;;;1.23;;
66721;SDS011;53633;49.932;10.884;2023-04-24T11:13:22;2.53;;;1.00;;
66721;SDS011;53633;49.932;10.884;2023-04-24T11:18:42;4.07;;;1.20;;
66721;SDS011;53633;49.932;10.884;2023-04-24T11:21:10;3.78;;;1.00;;
66721;SDS011;53633;49.932;10.884;2023-04-24T11:23:37;2.80;;;1.00;;
66721;SDS011;53633;49.932;10.884;2023-04-24T11:26:10;2.87;;;1.10;;
66721;SDS011;53633;49.932;10.884;2023-04-24T11:28:39;3.90;;;1.13;;
66721;SDS011;53633;49.932;10.884;2023-04-24T11:34:11;6.03;;;1.48;;
66721;SDS011;53633;49.932;10.884;2023-04-24T11:36:39;4.18;;;1.30;;
66721;SDS011;53633;49.932;10.884;2023-04-24T11:39:08;5.10;;;1.47;;
66721;SDS011;53633;49.932;10.884;2023-04-24T11:41:35;4.38;;;1.30;;
66721;SDS011;53633;49.932;10.884;2023-04-24T11:44:02;3.03;;;1.15;;
66721;SDS011;53633;49.932;10.884;2023-04-24T11:46:30;4.13;;;1.17;;
66721;SDS011;53633;49.932;10.884;2023-04-24T11:48:57;5.32;;;1.15;;
66721;SDS011;53633;49.932;10.884;2023-04-24T11:51:26;4.83;;;1.70;;
66721;SDS011;53633;49.932;10.884;2023-04-24T11:54:02;4.20;;;1.42;;
66721;SDS011;53633;49.932;10.884;2023-04-24T11:56:33;3.83;;;1.50;;
66721;SDS011;53633;49.932;10.884;2023-04-24T11:59:00;3.50;;;1.40;;
66721;SDS011;53633;49.932;10.884;2023-04-24T12:01:36;4.18;;;1.60;;
66721;SDS011;53633;49.932;10.884;2023-04-24T12:04:09;4.50;;;1.67;;
66721;SDS011;53633;49.932;10.884;2023-04-24T12:06:37;4.47;;;1.60;;
66721;SDS011;53633;49.932;10.884;2023-04-24T12:09:04;4.50;;;1.48;;
66721;SDS011;53633;49.932;10.884;2023-04-24T12:11:52;5.38;;;1.85;;
66721;SDS011;53633;49.932;10.884;2023-04-24T12:14:19;4.88;;;1.60;;
66721;SDS011;53633;49.932;10.884;2023-04-24T12:16:47;5.83;;;1.40;;
66721;SDS011;53633;49.932;10.884;2023-04-24T12:19:17;6.82;;;1.20;;
66721;SDS011;53633;49.932;10.884;2023-04-24T12:21:46;3.83;;;1.10;;
66721;SDS011;53633;49.932;10.884;2023-04-24T12:24:25;3.45;;;1.23;;
66721;SDS011;53633;49.932;10.884;2023-04-24T12:26:52;3.25;;;1.15;;
66721;SDS011;53633;49.932;10.884;2023-04-24T12:29:32;5.60;;;1.20;;
66721;SDS011;53633;49.932;10.884;2023-04-24T12:31:59;3.88;;;1.10;;
66721;SDS011;53633;49.932;10.884;2023-04-24T12:34:25;4.13;;;1.27;;
66721;SDS011;53633;49.932;10.884;2023-04-24T12:36:53;4.97;;;1.77;;
66721;SDS011;53633;49.932;10.884;2023-04-24T12:39:20;4.43;;;1.67;;
66721;SDS011;53633;49.932;10.884;2023-04-24T12:41:50;4.13;;;1.33;;
66721;SDS011;53633;49.932;10.884;2023-04-24T12:44:20;3.45;;;1.30;;
66721;SDS011;53633;49.932;10.884;2023-04-24T12:46:55;5.28;;;1.60;;
66721;SDS011;53633;49.932;10.884;2023-04-24T12:49:21;4.88;;;1.35;;
66721;SDS011;53633;49.932;10.884;2023-04-24T12:51:48;3.92;;;1.35;;
66721;SDS011;53633;49.932;10.884;2023-04-24T12:54:16;5.00;;;1.50;;
66721;SDS011;53633;49.932;10.884;2023-04-24T12:56:43;4.30;;;1.73;;
66721;SDS011;53633;49.932;10.884;2023-04-24T12:59:09;5.47;;;1.40;;
66721;SDS011;53633;49.932;10.884;2023-04-24T13:01:36;4.50;;;1.50;;
66721;SDS011;53633;49.932;10.884;2023-04-24T13:04:03;3.67;;;1.25;;
66721;SDS011;53633;49.932;10.884;2023-04-24T13:06:31;3.67;;;1.20;;
66721;SDS011;53633;49.932;10.884;2023-04-24T13:08:58;3.65;;;1.20;;
66721;SDS011;53633;49.932;10.884;2023-04-24T13:11:26;3.05;;;1.00;;
66721;SDS011;53633;49.932;10.884;2023-04-24T13:13:54;6.35;;;1.30;;
66721;SDS011;53633;49.932;10.884;2023-04-24T13:16:21;4.78;;;1.50;;
66721;SDS011;53633;49.932;10.884;2023-04-24T13:18:47;3.90;;;1.10;;
66721;SDS011;53633;49.932;10.884;2023-04-24T13:21:14;3.95;;;1.30;;
66721;SDS011;53633;49.932;10.884;2023-04-24T13:23:41;3.50;;;1.40;;
66721;SDS011;53633;49.932;10.884;2023-04-24T13:26:08;3.15;;;1.33;;
66721;SDS011;53633;49.932;10.884;2023-04-24T13:28:36;6.70;;;1.40;;
66721;SDS011;53633;49.932;10.884;2023-04-24T13:31:03;3.77;;;1.23;;
66721;SDS011;53633;49.932;10.884;2023-04-24T13:33:29;4.90;;;1.30;;
66721;SDS011;53633;49.932;10.884;2023-04-24T13:35:56;4.43;;;1.30;;
66721;SDS011;53633;49.932;10.884;2023-04-24T13:38:23;8.30;;;2.15;;
66721;SDS011;53633;49.932;10.884;2023-04-24T13:40:50;4.65;;;1.13;;
66721;SDS011;53633;49.932;10.884;2023-04-24T13:43:16;5.10;;;1.20;;
66721;SDS011;53633;49.932;10.884;2023-04-24T13:45:44;6.85;;;1.60;;
66721;SDS011;53633;49.932;10.884;2023-04-24T13:48:11;3.25;;;1.05;;
66721;SDS011;53633;49.932;10.884;2023-04-24T13:50:38;2.47;;;0.90;;
66721;SDS011;53633;49.932;10.884;2023-04-24T13:53:04;2.80;;;0.77;;
66721;SDS011;53633;49.932;10.884;2023-04-24T13:55:31;4.20;;;1.20;;
66721;SDS011;53633;49.932;10.884;2023-04-24T13:57:58;3.15;;;0.95;;
66721;SDS011;53633;49.932;10.884;2023-04-24T14:00:24;4.53;;;0.98;;
66721;SDS011;53633;49.932;10.884;2023-04-24T14:02:53;4.95;;;0.98;;
66721;SDS011;53633;49.932;10.884;2023-04-24T14:05:19;2.75;;;0.85;;
66721;SDS011;53633;49.932;10.884;2023-04-24T14:07:46;4.30;;;1.67;;
66721;SDS011;53633;49.932;10.884;2023-04-24T14:10:13;4.95;;;1.80;;
66721;SDS011;53633;49.932;10.884;2023-04-24T14:12:39;5.53;;;1.50;;
66721;SDS011;53633;49.932;10.884;2023-04-24T14:15:07;3.70;;;1.10;;
66721;SDS011;53633;49.932;10.884;2023-04-24T14:17:34;4.30;;;1.90;;
66721;SDS011;53633;49.932;10.884;2023-04-24T14:20:02;5.60;;;1.80;;
66721;SDS011;53633;49.932;10.884;2023-04-24T14:22:30;8.05;;;2.20;;
66721;SDS011;53633;49.932;10.884;2023-04-24T14:24:56;5.13;;;1.60;;
66721;SDS011;53633;49.932;10.884;2023-04-24T14:27:23;4.97;;;2.08;;
66721;SDS011;53633;49.932;10.884;2023-04-24T14:29:50;5.38;;;1.77;;
66721;SDS011;53633;49.932;10.884;2023-04-24T14:32:17;5.80;;;1.70;;
66721;SDS011;53633;49.932;10.884;2023-04-24T14:34:43;6.78;;;1.85;;
66721;SDS011;53633;49.932;10.884;2023-04-24T14:37:11;4.60;;;1.60;;
66721;SDS011;53633;49.932;10.884;2023-04-24T14:39:38;5.13;;;1.60;;
66721;SDS011;53633;49.932;10.884;2023-04-24T14:42:05;5.25;;;1.70;;
66721;SDS011;53633;49.932;10.884;2023-04-24T14:44:31;6.20;;;1.77;;